Saginaw Browne, MI

3:32 PM EDT on March 24, 2017 (GMT -0400)
Saginaw County-Browne

Weather History for KHYX - April, 2014

Change the Weather History Date:

Sunday, April 13, 2014

  Actual Average (KMBS) Record (KMBS)
Temperature  
Mean Temperature 60 °F -  
Max Temperature 69 °F 53 °F 72 °F (1998)
Min Temperature 50 °F 34 °F 26 °F (2009)
Degree Days  
Heating Degree Days 6    
Growing Degree Days 10 (Base 50)    
Moisture  
Dew Point 53 °F    
Average Humidity 87    
Maximum Humidity 100    
Minimum Humidity 60    
Precipitation  
Precipitation 0.00 in - - ()
Sea Level Pressure  
Sea Level Pressure 29.73 in    
Wind  
Wind Speed 10 mph (SE)    
Max Wind Speed 20 mph    
Max Gust Speed 25 mph    
Visibility 8 miles    
Events Rain    
Averages and records for this station are not official NWS values.
T = Trace of Precipitation, MM = Missing Value Source: NWS Daily Summary

Daily Weather History Graph

Daily Weather History Graph

Search for Another Location

Airport or City:

Trip Planner

Search our weather history database for the weather conditions in past years. The results will help you decide how hot, cold, wet, or windy it might be!

Date:

Astronomy

Apr. 13, 2014 Rise Set
Actual Time 6:56 AM EDT 8:16 PM EDT
Civil Twilight 6:26 AM EDT 8:45 PM EDT
Nautical Twilight 5:51 AM EDT 9:21 PM EDT
Astronomical Twilight 5:13 AM EDT 9:59 PM EDT
Moon 6:51 PM EDT (4/13) 5:57 AM EDT (4/13)
Length of Visible Light 14h 19m
Length of Day
13h 19m
Waxing Gibbous, 97% of the Moon is Illuminated
Apr 13
Waxing Gibbous
Apr 15
Full
Apr 22
Last Quarter
Apr 29
New
May 6
First Quarter

Hourly Weather History & Observations

Time (EDT) Temp. Dew Point Humidity Pressure Visibility Wind Dir Wind Speed Gust Speed Precip Events Conditions
12:15 AM 50.0 °F 50.0 °F 100% 29.89 in 3.0 mi SE 12.7 mph - N/A Rain Light Rain
12:35 AM 50.0 °F 50.0 °F 100% 29.86 in 3.0 mi SE 15.0 mph - N/A   Unknown
12:54 AM 50.0 °F 50.0 °F 100% 29.84 in 3.0 mi SE 17.3 mph 24.2 mph N/A   Unknown
1:15 AM 50.0 °F 50.0 °F 100% 29.82 in 7.0 mi SE 19.6 mph 24.2 mph N/A Rain Light Rain
1:35 AM 51.8 °F 50.0 °F 94% 29.80 in 10.0 mi SE 19.6 mph 25.3 mph N/A Rain Light Rain
1:55 AM 51.8 °F 50.0 °F 94% 29.80 in 7.0 mi SE 15.0 mph 19.6 mph N/A Rain Light Rain
2:15 AM 51.8 °F 50.0 °F 94% 29.78 in 10.0 mi SE 13.8 mph 18.4 mph N/A   Mostly Cloudy
2:35 AM 51.8 °F 50.0 °F 94% 29.77 in 10.0 mi SE 9.2 mph - N/A   Overcast
2:55 AM 51.8 °F 50.0 °F 94% 29.77 in 10.0 mi SSE 9.2 mph - N/A   Overcast
3:15 AM 51.8 °F 50.0 °F 94% 29.78 in 10.0 mi Calm Calm - N/A   Mostly Cloudy
3:34 AM 51.8 °F 50.0 °F 94% 29.78 in 10.0 mi Calm Calm - N/A   Overcast
3:55 AM 51.8 °F 50.0 °F 94% 29.79 in 10.0 mi South 3.5 mph - N/A   Overcast
4:15 AM 50.0 °F 50.0 °F 100% 29.78 in 10.0 mi Calm Calm - N/A   Mostly Cloudy
4:34 AM 50.0 °F 48.2 °F 94% 29.78 in 10.0 mi Calm Calm - N/A   Mostly Cloudy
4:55 AM 50.0 °F 48.2 °F 94% 29.77 in 10.0 mi East 3.5 mph - N/A   Overcast
5:15 AM 50.0 °F 50.0 °F 100% 29.78 in 7.0 mi NNE 6.9 mph - N/A   Overcast
5:34 AM 50.0 °F 48.2 °F 94% 29.77 in 7.0 mi ENE 4.6 mph - N/A   Overcast
5:55 AM 50.0 °F 48.2 °F 94% 29.76 in 7.0 mi East 5.8 mph - N/A   Overcast
6:15 AM 50.0 °F 48.2 °F 94% 29.74 in 7.0 mi East 5.8 mph - N/A   Overcast
6:35 AM 50.0 °F 48.2 °F 94% 29.74 in 7.0 mi ESE 3.5 mph - N/A   Overcast
6:55 AM 50.0 °F 48.2 °F 94% 29.74 in 7.0 mi ESE 4.6 mph - N/A   Overcast
7:15 AM 50.0 °F 48.2 °F 94% 29.77 in 7.0 mi Calm Calm - N/A   Overcast
7:35 AM 50.0 °F 48.2 °F 94% 29.76 in 5.0 mi SE 5.8 mph - N/A   Overcast
7:55 AM 50.0 °F 48.2 °F 94% 29.76 in 5.0 mi Calm Calm - N/A   Overcast
8:15 AM 50.0 °F 48.2 °F 94% 29.73 in 5.0 mi East 3.5 mph - N/A   Mostly Cloudy
8:35 AM 50.0 °F 50.0 °F 100% 29.71 in 7.0 mi SE 6.9 mph - N/A   Scattered Clouds
8:55 AM 51.8 °F 51.8 °F 100% 29.70 in 7.0 mi SSE 11.5 mph - N/A   Clear
9:15 AM 53.6 °F 51.8 °F 94% 29.68 in 7.0 mi SSE 13.8 mph - N/A   Clear
9:35 AM 55.4 °F 53.6 °F 94% 29.66 in 10.0 mi SSE 17.3 mph 24.2 mph N/A   Clear
9:55 AM 59.0 °F 51.8 °F 77% 29.69 in 10.0 mi SSW 15.0 mph 20.7 mph N/A   Scattered Clouds
10:15 AM 60.8 °F 51.8 °F 72% 29.68 in 10.0 mi SSW 16.1 mph - N/A   Mostly Cloudy
10:35 AM 62.6 °F 53.6 °F 72% 29.71 in 10.0 mi SW 17.3 mph 23.0 mph N/A   Mostly Cloudy
10:55 AM 62.6 °F 53.6 °F 72% 29.72 in 10.0 mi SW 13.8 mph 17.3 mph N/A   Overcast
11:35 AM 62.6 °F 53.6 °F 72% 29.71 in 10.0 mi SW 8.1 mph - N/A   Overcast
11:55 AM 62.6 °F 53.6 °F 72% 29.71 in 10.0 mi SW 6.9 mph - N/A   Overcast
12:15 PM 64.4 °F 55.4 °F 73% 29.71 in 10.0 mi SW 6.9 mph - N/A   Overcast
12:35 PM 64.4 °F 55.4 °F 73% 29.72 in 10.0 mi WSW 11.5 mph - N/A   Overcast
12:55 PM 64.4 °F 55.4 °F 73% 29.72 in 10.0 mi WSW 6.9 mph - N/A   Overcast
1:15 PM 64.4 °F 55.4 °F 73% 29.72 in 10.0 mi WSW 9.2 mph - N/A   Overcast
1:35 PM 66.2 °F 55.4 °F 68% 29.71 in 10.0 mi SW 11.5 mph - N/A   Overcast
1:55 PM 68.0 °F 55.4 °F 64% 29.72 in 10.0 mi WSW 13.8 mph - N/A   Overcast
2:15 PM 66.2 °F 53.6 °F 64% 29.73 in 10.0 mi WSW 10.4 mph 20.7 mph N/A   Overcast
2:35 PM 68.0 °F 53.6 °F 60% 29.73 in 10.0 mi WSW 12.7 mph 20.7 mph N/A   Overcast
2:55 PM 69.8 °F 55.4 °F 60% 29.73 in 10.0 mi West 12.7 mph 16.1 mph N/A   Overcast
3:14 PM 69.8 °F 55.4 °F 60% 29.73 in 10.0 mi West 10.4 mph - N/A   Scattered Clouds
3:35 PM 68.0 °F 55.4 °F 64% 29.73 in 10.0 mi WNW 10.4 mph - N/A   Mostly Cloudy
3:55 PM 68.0 °F 55.4 °F 64% 29.73 in 10.0 mi WNW 10.4 mph - N/A   Overcast
4:14 PM 68.0 °F 55.4 °F 64% 29.73 in 10.0 mi West 9.2 mph - N/A   Overcast
4:35 PM 68.0 °F 53.6 °F 60% 29.74 in 10.0 mi West 9.2 mph - N/A   Overcast
4:55 PM 66.2 °F 55.4 °F 68% 29.74 in 10.0 mi WNW 10.4 mph - N/A   Overcast
5:14 PM 64.4 °F 53.6 °F 68% 29.73 in 10.0 mi NW 8.1 mph - N/A   Overcast
5:35 PM 64.4 °F 53.6 °F 68% 29.73 in 10.0 mi NW 4.6 mph - N/A   Overcast
5:55 PM 62.6 °F 55.4 °F 77% 29.73 in 10.0 mi NE 9.2 mph - N/A   Overcast
6:14 PM 59.0 °F 55.4 °F 88% 29.71 in 7.0 mi ENE 11.5 mph - N/A   Overcast
6:35 PM 59.0 °F 53.6 °F 82% 29.73 in 10.0 mi ENE 6.9 mph - N/A   Mostly Cloudy
6:55 PM 59.0 °F 55.4 °F 88% 29.71 in 7.0 mi NE 11.5 mph - N/A Rain Rain
7:14 PM 55.4 °F 55.4 °F 100% 29.73 in 7.0 mi ENE 8.1 mph - N/A   Overcast
7:35 PM 55.4 °F 55.4 °F 100% 29.72 in 3.0 mi NE 6.9 mph - N/A Rain Rain
7:55 PM 55.4 °F 55.4 °F 100% 29.71 in 2.0 mi NE 6.9 mph - N/A Rain Heavy Rain
8:14 PM 55.4 °F 55.4 °F 100% 29.73 in 5.0 mi East 5.8 mph - N/A Rain Light Rain
8:35 PM 55.4 °F 55.4 °F 100% 29.71 in 5.0 mi East 8.1 mph - N/A Rain Light Rain
8:55 PM 55.4 °F 55.4 °F 100% 29.70 in 7.0 mi East 8.1 mph - N/A   Overcast
9:15 PM 55.4 °F 55.4 °F 100% 29.69 in 7.0 mi ENE 8.1 mph - N/A   Overcast
9:35 PM 55.4 °F 55.4 °F 100% 29.68 in 7.0 mi ENE 8.1 mph - N/A   Overcast
9:55 PM 55.4 °F 55.4 °F 100% 29.66 in 7.0 mi East 12.7 mph - N/A Rain Light Rain
10:15 PM 55.4 °F 55.4 °F 100% 29.66 in 5.0 mi East 9.2 mph - N/A   Overcast
10:35 PM 55.4 °F 55.4 °F 100% 29.64 in 7.0 mi ENE 8.1 mph - N/A Rain Light Rain
10:55 PM 55.4 °F 55.4 °F 100% 29.64 in 7.0 mi NE 4.6 mph - N/A   Overcast
11:15 PM 55.4 °F 55.4 °F 100% 29.64 in 1.8 mi NNE 3.5 mph - N/A Rain Heavy Rain
11:35 PM 55.4 °F 55.4 °F 100% 29.64 in 3.0 mi North 5.8 mph - N/A Rain Heavy Rain
11:55 PM 55.4 °F 55.4 °F 100% 29.61 in 4.0 mi East 12.7 mph - N/A Rain Light Rain